Time;durP1;ratioP1;P1;durP2;ratioP2;P2;SDS_P1;SDS_P2;PMS_P1;PMS_P2;Temp;Humidity;BMP_temperature;BMP_pressure;BME280_temperature;BME280_humidity;BME280_pressure;Samples;Min_cycle;Max_cycle;Signal;HPM_P1;HPM_P2
2022/12/22 03:26:52;;;;;;;3.43;2.97;;;10.90;99.90;;;;;;4986812;28;20424;-81
2022/12/22 03:29:19;;;;;;;2.17;1.97;;;10.90;99.90;;;;;;4987063;28;20471;-80
2022/12/22 03:31:46;;;;;;;3.10;2.57;;;10.90;99.90;;;;;;4987030;28;20470;-79
2022/12/22 03:34:15;;;;;;;4.13;2.40;;;10.90;99.90;;;;;;4986616;28;20479;-80
2022/12/22 03:36:41;;;;;;;2.53;2.00;;;10.90;99.90;;;;;;4986237;28;20479;-79
2022/12/22 03:39:08;;;;;;;3.20;2.90;;;10.90;99.90;;;;;;4984301;28;20511;-80
2022/12/22 03:47:04;;;;;;;2.50;2.10;;;10.90;99.90;;;;;;4987957;28;20410;-79
2022/12/22 03:49:32;;;;;;;1.60;1.47;;;10.90;99.90;;;;;;4987142;28;20809;-79
2022/12/22 03:51:58;;;;;;;2.80;1.73;;;10.90;99.90;;;;;;4987988;28;20469;-79
2022/12/22 03:54:26;;;;;;;2.30;1.27;;;10.90;99.90;;;;;;4987438;28;20464;-79
2022/12/22 03:56:53;;;;;;;2.40;1.30;;;10.90;99.90;;;;;;4987970;28;20485;-79
2022/12/22 03:59:20;;;;;;;1.30;1.17;;;10.90;99.90;;;;;;4987136;28;20447;-80
2022/12/22 04:01:48;;;;;;;3.00;1.20;;;10.90;99.90;;;;;;4985998;28;20955;-79
2022/12/22 04:04:16;;;;;;;3.20;1.47;;;10.90;99.90;;;;;;4984967;28;21022;-80
2022/12/22 04:06:45;;;;;;;1.67;1.00;;;10.90;99.90;;;;;;4984876;28;20466;-79
2022/12/22 04:09:12;;;;;;;6.70;1.37;;;10.90;99.90;;;;;;4986762;28;20453;-78
2022/12/22 04:14:24;;;;;;;1.73;1.40;;;10.90;99.90;;;;;;4983935;28;20988;-79
2022/12/22 04:16:50;;;;;;;1.57;1.47;;;10.90;99.90;;;;;;4984723;28;20495;-79
2022/12/22 04:19:17;;;;;;;2.43;1.80;;;10.90;99.90;;;;;;4983495;28;20464;-79
2022/12/22 04:21:45;;;;;;;1.87;1.70;;;11.00;99.90;;;;;;4983024;28;20884;-79
2022/12/22 04:24:13;;;;;;;1.93;1.30;;;11.00;99.90;;;;;;4989252;28;20471;-79
2022/12/22 04:26:40;;;;;;;2.30;2.10;;;11.00;99.90;;;;;;4984347;28;20453;-79
2022/12/22 04:29:06;;;;;;;2.70;2.50;;;11.00;99.90;;;;;;4982784;28;20456;-80
2022/12/22 04:31:33;;;;;;;4.90;3.17;;;11.00;99.90;;;;;;4982655;28;20475;-80
2022/12/22 04:34:00;;;;;;;4.37;3.03;;;11.00;99.90;;;;;;4986044;28;20844;-80
2022/12/22 04:36:27;;;;;;;3.47;3.17;;;10.90;99.90;;;;;;4984445;28;20484;-80
2022/12/22 04:38:55;;;;;;;7.00;5.50;;;10.90;99.90;;;;;;4982723;28;20541;-81
2022/12/22 04:41:21;;;;;;;4.00;3.13;;;10.90;99.90;;;;;;4981952;28;20452;-80
2022/12/22 04:43:48;;;;;;;4.60;3.40;;;10.90;99.90;;;;;;4980676;28;20487;-79
2022/12/22 04:46:15;;;;;;;5.33;3.70;;;10.90;99.90;;;;;;4981163;28;20449;-79
2022/12/22 04:48:42;;;;;;;5.47;3.50;;;10.90;99.90;;;;;;4979949;28;20453;-79
2022/12/22 04:51:08;;;;;;;6.00;4.80;;;10.90;99.90;;;;;;4981176;28;20568;-79
2022/12/22 04:53:35;;;;;;;8.23;4.73;;;10.90;99.90;;;;;;4980596;28;20464;-79
2022/12/22 04:56:07;;;;;;;5.40;3.87;;;10.90;99.90;;;;;;4978904;28;20500;-79
2022/12/22 04:58:34;;;;;;;4.80;4.30;;;10.90;99.90;;;;;;4979616;28;20469;-79
2022/12/22 05:01:09;;;;;;;5.30;4.80;;;10.90;99.90;;;;;;4978926;28;20464;-79
2022/12/22 05:03:36;;;;;;;4.50;3.70;;;10.90;99.90;;;;;;4979050;28;20469;-79
2022/12/22 05:06:04;;;;;;;5.90;4.43;;;10.90;99.90;;;;;;4978379;28;20816;-79
2022/12/22 05:08:30;;;;;;;5.70;4.57;;;10.90;99.90;;;;;;4978533;28;20463;-80
2022/12/22 05:10:57;;;;;;;4.80;4.23;;;10.90;99.90;;;;;;4978290;28;20437;-79
2022/12/22 05:13:25;;;;;;;5.50;5.00;;;10.90;99.90;;;;;;4978291;28;20988;-79
2022/12/22 05:15:52;;;;;;;5.40;3.83;;;10.90;99.90;;;;;;4978428;28;20489;-79
2022/12/22 05:18:19;;;;;;;4.47;3.97;;;10.90;99.90;;;;;;4978147;28;20446;-79
2022/12/22 05:20:46;;;;;;;7.70;4.80;;;10.90;99.90;;;;;;4977766;28;20452;-79
2022/12/22 05:23:13;;;;;;;4.83;4.33;;;10.90;99.90;;;;;;4977843;28;20821;-79
2022/12/22 05:25:40;;;;;;;6.57;4.40;;;10.90;99.90;;;;;;4978051;28;20481;-80
2022/12/22 05:28:06;;;;;;;5.37;4.87;;;10.90;99.90;;;;;;4977677;28;20464;-80
2022/12/22 05:30:34;;;;;;;4.23;3.80;;;10.90;99.90;;;;;;4977853;28;20434;-79
2022/12/22 05:33:02;;;;;;;4.60;4.03;;;10.90;99.90;;;;;;4977509;28;20967;-79
2022/12/22 05:35:29;;;;;;;4.77;4.37;;;10.90;99.90;;;;;;4977355;28;20904;-79
2022/12/22 05:37:56;;;;;;;4.47;4.10;;;10.90;99.90;;;;;;4978173;28;20459;-79
2022/12/22 05:40:22;;;;;;;5.17;4.67;;;10.90;99.90;;;;;;4978423;28;20446;-79
2022/12/22 05:42:49;;;;;;;7.33;4.33;;;10.90;99.90;;;;;;4978586;28;20457;-80
2022/12/22 05:45:21;;;;;;;5.33;3.90;;;10.90;99.90;;;;;;4978795;28;20461;-80
2022/12/22 05:47:51;;;;;;;5.17;4.67;;;10.90;99.90;;;;;;4977378;28;20441;-79
2022/12/22 05:50:19;;;;;;;4.50;4.10;;;10.90;99.90;;;;;;4977380;28;20836;-79
2022/12/22 05:52:46;;;;;;;5.07;4.40;;;10.90;99.90;;;;;;4977313;28;20452;-80
2022/12/22 05:55:14;;;;;;;5.57;4.63;;;10.90;99.90;;;;;;4976902;28;20488;-80
2022/12/22 05:57:42;;;;;;;5.27;4.70;;;10.90;99.90;;;;;;4976998;28;20475;-79
2022/12/22 06:00:11;;;;;;;4.63;4.20;;;10.80;99.90;;;;;;4976780;28;20569;-79
2022/12/22 06:02:38;;;;;;;6.57;5.60;;;10.90;99.90;;;;;;4976821;28;20459;-80
2022/12/22 06:05:07;;;;;;;5.50;4.60;;;10.90;99.90;;;;;;4976486;28;20556;-80
2022/12/22 06:07:33;;;;;;;5.80;4.90;;;10.80;99.90;;;;;;4976818;28;20464;-80
2022/12/22 06:10:00;;;;;;;5.00;4.60;;;10.80;99.90;;;;;;4977016;28;20806;-80
2022/12/22 06:12:27;;;;;;;7.00;3.97;;;10.80;99.90;;;;;;4976185;28;20957;-80
2022/12/22 06:14:54;;;;;;;5.00;4.60;;;10.80;99.90;;;;;;4976460;28;20477;-79
2022/12/22 06:17:20;;;;;;;7.47;5.37;;;10.80;99.90;;;;;;4976676;28;20493;-80
2022/12/22 06:19:47;;;;;;;12.93;4.83;;;10.80;99.90;;;;;;4976734;28;20462;-79
2022/12/22 06:22:15;;;;;;;4.90;4.47;;;10.80;99.90;;;;;;4976072;28;20464;-80
2022/12/22 06:24:42;;;;;;;4.70;4.20;;;10.80;99.90;;;;;;4976126;28;20473;-80
2022/12/22 06:27:09;;;;;;;4.73;4.33;;;10.80;99.90;;;;;;4976989;28;20465;-79
2022/12/22 06:29:36;;;;;;;4.30;3.43;;;10.80;99.90;;;;;;4976276;28;20487;-80
2022/12/22 06:32:03;;;;;;;3.87;3.57;;;10.80;99.90;;;;;;4975499;28;20473;-79
2022/12/22 06:34:30;;;;;;;4.57;3.93;;;10.90;99.90;;;;;;4975833;28;20844;-78
2022/12/22 06:36:57;;;;;;;5.77;3.67;;;10.80;99.90;;;;;;4975592;28;20496;-78
2022/12/22 06:39:25;;;;;;;3.93;3.60;;;10.80;99.90;;;;;;4975890;28;20454;-79
2022/12/22 06:44:35;;;;;;;4.80;4.40;;;10.80;99.90;;;;;;4956201;28;20479;-78
2022/12/22 06:47:02;;;;;;;4.53;4.03;;;10.80;99.90;;;;;;4975385;28;20448;-79
2022/12/22 06:49:28;;;;;;;4.30;3.90;;;10.80;99.90;;;;;;4975261;28;20546;-78
2022/12/22 06:51:55;;;;;;;6.30;5.60;;;10.80;99.90;;;;;;4975822;28;20818;-78
2022/12/22 06:54:22;;;;;;;5.03;4.20;;;10.80;99.90;;;;;;4975353;28;20488;-78
2022/12/22 06:56:50;;;;;;;5.67;5.17;;;10.80;99.90;;;;;;4975077;28;20496;-78
2022/12/22 06:59:16;;;;;;;4.97;4.43;;;10.80;99.90;;;;;;4975448;28;20791;-78
2022/12/22 07:01:43;;;;;;;4.33;3.93;;;10.80;99.90;;;;;;4975068;28;20463;-78
2022/12/22 07:04:10;;;;;;;9.40;4.47;;;10.70;99.90;;;;;;4974657;28;20480;-78
2022/12/22 07:06:37;;;;;;;5.50;3.97;;;10.70;99.90;;;;;;4974840;28;20460;-78
2022/12/22 07:09:04;;;;;;;3.37;3.07;;;10.70;99.90;;;;;;4975095;28;20445;-78
2022/12/22 07:11:31;;;;;;;3.40;3.10;;;10.70;99.90;;;;;;4974634;28;20437;-79
2022/12/22 07:13:59;;;;;;;3.10;2.87;;;10.70;99.90;;;;;;4974830;28;20553;-78
2022/12/22 07:16:25;;;;;;;6.23;5.63;;;10.70;99.90;;;;;;4974736;28;20588;-78
2022/12/22 07:18:52;;;;;;;7.80;6.00;;;10.60;99.90;;;;;;4975221;28;20449;-77
2022/12/22 07:21:19;;;;;;;7.93;6.40;;;10.70;99.90;;;;;;4979165;28;20463;-77
2022/12/22 07:23:45;;;;;;;10.70;7.07;;;10.70;99.90;;;;;;4978777;28;20452;-78
2022/12/22 07:26:12;;;;;;;10.60;7.07;;;10.60;99.90;;;;;;4978927;28;20463;-78
2022/12/22 07:28:41;;;;;;;11.97;7.30;;;10.60;99.90;;;;;;4978435;28;20464;-77
2022/12/22 07:31:11;;;;;;;9.43;7.10;;;10.60;99.90;;;;;;4978681;28;20472;-77
2022/12/22 07:33:38;;;;;;;9.33;7.80;;;10.60;99.90;;;;;;4980677;28;20461;-77
2022/12/22 07:36:07;;;;;;;12.17;8.20;;;10.60;99.90;;;;;;4989438;28;20456;-78
2022/12/22 07:38:36;;;;;;;10.30;7.50;;;10.70;99.90;;;;;;4991438;28;20467;-78
2022/12/22 07:42:43;;;;;;;10.00;8.27;;;10.70;99.90;;;;;;4992649;28;20460;-78
2022/12/22 07:43:50;;;;;;;12.70;8.83;;;10.70;99.90;;;;;;4989615;28;20459;-78
2022/12/22 07:46:18;;;;;;;12.20;9.60;;;10.70;99.90;;;;;;4981666;28;20961;-78
2022/12/22 07:51:33;;;;;;;13.73;11.50;;;10.70;99.90;;;;;;4994030;28;20456;-78
2022/12/22 07:53:59;;;;;;;18.73;13.07;;;10.70;99.90;;;;;;4998002;28;20515;-78
2022/12/22 07:56:26;;;;;;;16.00;12.40;;;10.70;99.90;;;;;;4997844;28;20479;-78
2022/12/22 07:58:53;;;;;;;17.37;13.30;;;10.70;99.90;;;;;;4998300;28;20447;-78
2022/12/22 08:01:21;;;;;;;15.00;11.73;;;10.70;99.90;;;;;;4998689;28;20443;-78
2022/12/22 08:03:48;;;;;;;16.47;13.90;;;10.80;99.90;;;;;;4997655;28;20832;-78
2022/12/22 08:06:14;;;;;;;13.37;11.17;;;10.80;99.90;;;;;;4997560;28;20466;-77
2022/12/22 08:08:41;;;;;;;13.60;12.10;;;10.80;99.90;;;;;;4997421;28;20470;-78
2022/12/22 08:11:08;;;;;;;14.80;12.03;;;10.80;99.90;;;;;;4997821;28;20454;-78
2022/12/22 08:13:35;;;;;;;15.43;12.83;;;10.90;99.90;;;;;;4997664;28;20463;-77
2022/12/22 08:16:06;;;;;;;15.87;11.73;;;10.90;99.90;;;;;;4997321;28;20478;-77
2022/12/22 08:18:35;;;;;;;17.03;12.50;;;10.90;99.90;;;;;;4997251;28;20459;-78
2022/12/22 08:21:03;;;;;;;19.57;12.80;;;10.90;99.90;;;;;;4997220;28;20939;-77
2022/12/22 08:23:30;;;;;;;19.13;13.90;;;10.90;99.90;;;;;;4997830;28;20439;-77
2022/12/22 08:26:01;;;;;;;18.13;14.20;;;11.00;99.90;;;;;;4997714;28;20487;-78
2022/12/22 08:28:29;;;;;;;20.03;13.83;;;10.90;99.90;;;;;;4996637;28;20420;-77
2022/12/22 08:30:56;;;;;;;20.73;15.70;;;11.00;99.90;;;;;;4995798;28;20471;-78
2022/12/22 08:33:23;;;;;;;18.60;14.20;;;11.00;99.90;;;;;;4997285;28;20415;-77
2022/12/22 08:35:54;;;;;;;19.63;14.23;;;11.00;99.90;;;;;;4997335;28;20877;-77
2022/12/22 08:38:21;;;;;;;19.13;15.13;;;11.00;99.90;;;;;;4997162;28;20483;-76
2022/12/22 08:40:49;;;;;;;16.73;13.70;;;11.00;99.90;;;;;;4997031;28;20451;-77
2022/12/22 08:43:16;;;;;;;22.47;14.30;;;11.00;99.90;;;;;;4996552;28;20821;-77
2022/12/22 08:45:43;;;;;;;19.20;14.90;;;11.10;99.90;;;;;;4996784;28;20478;-77
2022/12/22 08:48:10;;;;;;;20.00;15.97;;;11.10;99.90;;;;;;4996905;28;20440;-77
2022/12/22 08:50:37;;;;;;;17.03;13.43;;;11.20;99.90;;;;;;4996859;28;20444;-76
2022/12/22 08:53:06;;;;;;;17.40;14.10;;;11.20;99.90;;;;;;4996728;28;20459;-76
2022/12/22 08:55:33;;;;;;;20.60;15.73;;;11.20;99.90;;;;;;4996681;28;20479;-76
2022/12/22 08:58:00;;;;;;;21.23;15.73;;;11.10;99.90;;;;;;4996503;28;20565;-77
2022/12/22 09:00:27;;;;;;;21.87;15.37;;;11.10;99.90;;;;;;4996288;28;20464;-76
2022/12/22 09:02:54;;;;;;;25.60;17.33;;;11.10;99.90;;;;;;4997550;28;20796;-77
2022/12/22 09:05:20;;;;;;;23.27;15.60;;;11.10;99.90;;;;;;4996571;28;20486;-78
2022/12/22 09:07:47;;;;;;;22.70;16.47;;;11.10;99.90;;;;;;4996490;28;20431;-77
2022/12/22 09:10:15;;;;;;;25.47;17.17;;;11.20;99.90;;;;;;4996522;28;20471;-77
2022/12/22 09:12:42;;;;;;;22.73;16.47;;;11.10;99.90;;;;;;4996566;28;20464;-78
2022/12/22 09:15:09;;;;;;;24.37;16.13;;;11.10;99.90;;;;;;4997378;28;20478;-78
2022/12/22 09:17:38;;;;;;;25.77;16.50;;;11.00;99.90;;;;;;4996770;28;20480;-78
2022/12/22 09:20:06;;;;;;;24.00;16.90;;;11.00;99.90;;;;;;4996879;28;20436;-78
2022/12/22 09:22:33;;;;;;;24.33;16.50;;;11.00;99.90;;;;;;4996613;28;20447;-78
2022/12/22 09:24:59;;;;;;;25.27;14.90;;;10.90;99.90;;;;;;5002869;28;20471;-77
2022/12/22 09:27:27;;;;;;;22.77;15.50;;;10.90;99.90;;;;;;5004441;28;20456;-77
2022/12/22 09:29:54;;;;;;;26.67;16.50;;;11.00;99.90;;;;;;4997763;28;20823;-78
2022/12/22 09:32:21;;;;;;;24.67;14.47;;;11.00;99.90;;;;;;4996321;28;20472;-77
2022/12/22 09:34:48;;;;;;;22.70;15.97;;;11.10;99.90;;;;;;4995997;28;20482;-78
2022/12/22 09:37:18;;;;;;;24.67;15.93;;;11.10;99.90;;;;;;4996045;28;20576;-78
2022/12/22 09:39:46;;;;;;;23.93;15.30;;;11.10;99.90;;;;;;4996443;28;20908;-77
2022/12/22 09:42:15;;;;;;;23.20;16.10;;;11.20;99.90;;;;;;4995294;28;21022;-78
2022/12/22 09:44:45;;;;;;;23.17;14.90;;;11.10;99.90;;;;;;4995889;28;20483;-77
2022/12/22 09:47:21;;;;;;;24.93;15.40;;;11.10;99.90;;;;;;4995890;28;20463;-77
2022/12/22 09:49:48;;;;;;;24.07;16.57;;;11.10;99.90;;;;;;4996017;28;20443;-77
2022/12/22 09:52:24;;;;;;;26.57;16.97;;;11.10;99.90;;;;;;4995182;28;20433;-77
2022/12/22 09:54:51;;;;;;;23.23;16.63;;;11.10;99.90;;;;;;4995581;28;20483;-77
2022/12/22 09:57:17;;;;;;;23.90;16.40;;;11.10;99.90;;;;;;4995496;28;20475;-77
2022/12/22 09:59:46;;;;;;;27.20;16.87;;;11.10;99.90;;;;;;4995078;28;20924;-77
2022/12/22 10:02:25;;;;;;;25.00;17.20;;;11.10;99.90;;;;;;4995193;28;20462;-77
2022/12/22 10:05:06;;;;;;;25.90;17.60;;;11.00;99.90;;;;;;4994817;28;20836;-77
2022/12/22 10:07:34;;;;;;;24.77;16.00;;;11.00;99.90;;;;;;4994937;28;20444;-77
2022/12/22 10:10:06;;;;;;;28.13;17.97;;;11.00;99.90;;;;;;4994964;28;20443;-77
2022/12/22 10:12:33;;;;;;;28.17;18.33;;;11.00;99.90;;;;;;4994859;28;20920;-77
2022/12/22 10:15:01;;;;;;;31.87;19.00;;;11.10;99.90;;;;;;4995283;28;20523;-77
2022/12/22 10:17:30;;;;;;;35.90;22.60;;;11.10;99.90;;;;;;4995398;28;20475;-77
2022/12/22 10:20:09;;;;;;;31.30;20.20;;;11.00;99.90;;;;;;4994889;28;20457;-77
2022/12/22 10:22:45;;;;;;;31.00;18.23;;;11.00;99.90;;;;;;4994797;28;20443;-77
2022/12/22 10:25:28;;;;;;;28.50;18.30;;;11.00;99.90;;;;;;4994828;28;20478;-77
2022/12/22 10:27:56;;;;;;;25.90;18.27;;;11.00;99.90;;;;;;4995300;28;20468;-77
2022/12/22 10:30:27;;;;;;;25.20;18.03;;;10.90;99.90;;;;;;4994536;28;20999;-77
2022/12/22 10:33:06;;;;;;;26.40;17.00;;;11.00;99.90;;;;;;4994718;28;20467;-77
2022/12/22 10:35:44;;;;;;;27.67;18.17;;;11.00;99.90;;;;;;4994536;28;20483;-78
2022/12/22 10:38:24;;;;;;;26.60;18.47;;;11.10;99.90;;;;;;4994933;28;20490;-77
2022/12/22 10:40:53;;;;;;;24.40;17.17;;;11.10;99.90;;;;;;4994810;28;20432;-78
2022/12/22 10:43:23;;;;;;;23.27;16.87;;;11.10;99.90;;;;;;4994497;28;20463;-78
2022/12/22 10:45:52;;;;;;;22.00;16.40;;;11.10;99.90;;;;;;4994360;28;20476;-78
2022/12/22 10:48:27;;;;;;;22.87;15.67;;;11.10;99.90;;;;;;4994744;28;20451;-77
2022/12/22 10:50:56;;;;;;;24.30;17.50;;;11.10;99.90;;;;;;4983359;28;20494;-76
2022/12/22 10:53:49;;;;;;;21.13;17.03;;;11.20;99.90;;;;;;4974851;28;20604;-76
2022/12/22 10:56:23;;;;;;;25.63;18.80;;;11.20;99.90;;;;;;4974659;28;20922;-77
2022/12/22 10:58:52;;;;;;;27.60;18.00;;;11.20;99.90;;;;;;4974876;28;20487;-77
2022/12/22 11:01:29;;;;;;;25.07;17.47;;;11.20;99.90;;;;;;4975856;28;20942;-76
2022/12/22 11:03:58;;;;;;;26.30;17.03;;;11.30;99.90;;;;;;4976045;28;20807;-77
2022/12/22 11:06:25;;;;;;;21.50;15.60;;;11.30;99.90;;;;;;4976563;28;20445;-77
2022/12/22 11:08:51;;;;;;;21.97;16.63;;;11.30;99.90;;;;;;4974727;28;20459;-76
2022/12/22 11:11:29;;;;;;;21.57;17.17;;;11.40;99.90;;;;;;4974425;28;20946;-76
2022/12/22 11:14:07;;;;;;;24.97;17.00;;;11.50;99.90;;;;;;4975621;28;20540;-77
2022/12/22 11:16:46;;;;;;;21.83;16.00;;;11.60;99.90;;;;;;4975603;28;20447;-77
2022/12/22 11:19:37;;;;;;;20.53;15.83;;;11.70;99.90;;;;;;4974645;28;20524;-76
2022/12/22 11:22:14;;;;;;;19.80;15.40;;;11.90;99.90;;;;;;4974673;28;20445;-77
2022/12/22 11:24:55;;;;;;;21.33;15.20;;;12.00;99.90;;;;;;4974785;28;20481;-77
2022/12/22 11:27:29;;;;;;;21.03;14.47;;;12.10;99.90;;;;;;4974622;28;20445;-76
2022/12/22 11:30:11;;;;;;;19.90;15.30;;;12.20;99.90;;;;;;4974647;28;20433;-76
2022/12/22 11:33:14;;;;;;;16.97;13.40;;;12.40;99.90;;;;;;4974126;28;21025;-76
2022/12/22 11:35:55;;;;;;;20.40;15.67;;;12.50;99.80;;;;;;4971815;28;20484;-76
2022/12/22 11:38:36;;;;;;;19.10;14.13;;;12.50;99.60;;;;;;4974338;28;20935;-76
2022/12/22 11:41:11;;;;;;;19.77;14.17;;;12.50;99.50;;;;;;4974526;28;20516;-77
2022/12/22 11:43:53;;;;;;;20.83;16.10;;;12.60;99.40;;;;;;4974577;28;20816;-77
2022/12/22 11:46:27;;;;;;;17.40;13.97;;;12.70;98.90;;;;;;4974684;28;20462;-77
2022/12/22 11:49:05;;;;;;;18.07;14.97;;;12.80;97.90;;;;;;4974264;28;20929;-77
2022/12/22 11:51:53;;;;;;;16.43;13.17;;;12.90;97.80;;;;;;4974625;28;20437;-76
2022/12/22 11:55:01;;;;;;;13.73;12.10;;;13.00;97.20;;;;;;4974754;28;20485;-76
2022/12/22 11:57:34;;;;;;;14.30;11.40;;;13.20;97.20;;;;;;4959484;28;20456;-76
2022/12/22 12:00:08;;;;;;;20.47;11.90;;;13.30;96.40;;;;;;4974409;28;20461;-76
2022/12/22 12:03:05;;;;;;;12.40;10.20;;;13.40;96.10;;;;;;4974281;28;20500;-76
2022/12/22 12:05:44;;;;;;;12.83;9.20;;;13.70;95.70;;;;;;4975553;28;20543;-76
2022/12/22 12:08:25;;;;;;;12.03;9.00;;;13.70;94.00;;;;;;4977734;28;20933;-77
2022/12/22 12:11:16;;;;;;;12.47;9.53;;;13.60;93.60;;;;;;4977571;28;20936;-76
2022/12/22 12:13:52;;;;;;;11.80;9.40;;;13.60;93.90;;;;;;4977342;28;20446;-76
2022/12/22 12:16:28;;;;;;;13.17;9.97;;;13.50;94.30;;;;;;4977680;28;20918;-76
2022/12/22 12:19:20;;;;;;;13.20;10.83;;;13.30;94.20;;;;;;4977940;28;20531;-76
2022/12/22 12:21:51;;;;;;;13.83;9.83;;;13.30;95.10;;;;;;4977605;28;20434;-76
2022/12/22 12:24:40;;;;;;;13.80;10.53;;;13.10;94.70;;;;;;4977827;28;20468;-76
2022/12/22 12:27:17;;;;;;;15.90;11.67;;;13.20;95.40;;;;;;4977750;28;20429;-76
2022/12/22 12:29:55;;;;;;;13.90;10.40;;;13.30;95.50;;;;;;4977371;28;20438;-76
2022/12/22 12:32:25;;;;;;;11.50;9.43;;;13.30;95.70;;;;;;4977199;28;20465;-77
2022/12/22 12:35:03;;;;;;;12.50;9.43;;;13.30;94.60;;;;;;4977204;28;20478;-76
2022/12/22 12:37:37;;;;;;;12.17;9.40;;;13.40;94.40;;;;;;4977145;28;20432;-77
2022/12/22 12:40:21;;;;;;;13.70;8.90;;;13.50;93.90;;;;;;4977416;28;20453;-76
2022/12/22 12:42:49;;;;;;;12.00;10.13;;;13.60;93.50;;;;;;4977394;28;20441;-76
2022/12/22 12:45:35;;;;;;;11.73;9.23;;;13.80;93.30;;;;;;4977163;28;20504;-76
2022/12/22 12:48:35;;;;;;;10.60;7.87;;;13.80;92.50;;;;;;4976806;28;20917;-76
2022/12/22 12:51:41;;;;;;;13.80;9.70;;;13.80;92.40;;;;;;4977036;28;20442;-76
2022/12/22 12:54:43;;;;;;;13.63;9.53;;;13.80;93.30;;;;;;4976468;28;20479;-76
2022/12/22 12:57:25;;;;;;;13.33;10.37;;;13.90;93.30;;;;;;4976697;28;20417;-76
2022/12/22 12:59:53;;;;;;;14.13;9.57;;;14.20;92.60;;;;;;4976579;28;20481;-76
2022/12/22 13:02:32;;;;;;;9.40;8.03;;;14.10;91.70;;;;;;4976766;28;20453;-76
2022/12/22 13:05:14;;;;;;;10.60;8.13;;;14.00;92.30;;;;;;4976767;28;20465;-76
2022/12/22 13:08:20;;;;;;;12.30;8.70;;;13.90;92.70;;;;;;4976822;28;20445;-77
2022/12/22 13:11:17;;;;;;;16.10;9.27;;;13.60;93.00;;;;;;4976996;28;20412;-76
2022/12/22 13:13:50;;;;;;;12.10;10.37;;;13.40;93.50;;;;;;4976880;28;20453;-76
2022/12/22 13:16:35;;;;;;;14.77;10.10;;;13.20;94.60;;;;;;4978604;28;20477;-76
2022/12/22 13:19:16;;;;;;;13.97;9.37;;;12.90;95.10;;;;;;4980599;28;20477;-77
2022/12/22 13:21:45;;;;;;;11.87;9.80;;;12.80;96.00;;;;;;4980490;28;20441;-77
2022/12/22 13:24:22;;;;;;;12.50;10.20;;;12.80;96.60;;;;;;4980180;28;21047;-77
2022/12/22 13:26:53;;;;;;;13.47;10.10;;;12.70;96.20;;;;;;4978569;28;20429;-77
2022/12/22 13:29:27;;;;;;;17.07;10.53;;;12.70;96.80;;;;;;4977703;28;20533;-76
2022/12/22 13:31:58;;;;;;;11.17;9.43;;;12.70;96.80;;;;;;4976182;28;20472;-76
2022/12/22 13:34:42;;;;;;;12.90;9.77;;;12.70;96.70;;;;;;4976086;28;21019;-76
2022/12/22 13:37:20;;;;;;;14.63;10.43;;;12.50;96.90;;;;;;4976163;28;20463;-76
2022/12/22 13:40:12;;;;;;;11.40;9.40;;;12.60;97.20;;;;;;4976269;28;20483;-77
2022/12/22 13:42:41;;;;;;;13.30;9.50;;;12.60;97.20;;;;;;4973619;28;20457;-76
2022/12/22 13:45:28;;;;;;;12.17;9.60;;;12.70;97.20;;;;;;4976224;28;21017;-77
2022/12/22 13:47:55;;;;;;;14.07;10.33;;;12.70;97.00;;;;;;4974344;28;20462;-76
2022/12/22 13:50:27;;;;;;;13.83;9.47;;;12.60;97.30;;;;;;4976078;28;20476;-77
2022/12/22 13:52:56;;;;;;;12.20;9.63;;;12.60;97.50;;;;;;4976141;28;20801;-77
2022/12/22 13:55:28;;;;;;;12.37;10.40;;;12.50;97.70;;;;;;4975989;28;20477;-77
2022/12/22 13:58:02;;;;;;;14.20;9.50;;;12.40;98.00;;;;;;4975963;28;20425;-76
2022/12/22 14:00:31;;;;;;;12.27;10.40;;;12.40;98.30;;;;;;4976591;28;20454;-76
2022/12/22 14:02:57;;;;;;;14.73;9.77;;;12.40;98.50;;;;;;4983463;28;20460;-76
2022/12/22 14:05:30;;;;;;;12.43;9.47;;;12.50;98.30;;;;;;4985876;28;20841;-76
2022/12/22 14:07:58;;;;;;;9.07;7.10;;;12.40;97.50;;;;;;4979115;28;20476;-76
2022/12/22 14:10:28;;;;;;;11.10;6.90;;;12.30;97.10;;;;;;4978764;28;20446;-76
2022/12/22 14:12:55;;;;;;;6.17;5.60;;;12.20;97.30;;;;;;4977020;28;20446;-77
2022/12/22 14:15:21;;;;;;;5.50;5.00;;;12.10;96.90;;;;;;4976697;28;20473;-76
2022/12/22 14:17:50;;;;;;;5.00;4.50;;;12.00;96.70;;;;;;4976524;28;20463;-77
2022/12/22 14:20:21;;;;;;;5.93;5.20;;;12.00;96.60;;;;;;4975980;28;20446;-76
2022/12/22 14:22:53;;;;;;;5.40;4.90;;;11.90;96.50;;;;;;4976361;28;20564;-76
2022/12/22 14:25:23;;;;;;;4.77;4.37;;;11.90;96.60;;;;;;4976036;28;20486;-77
2022/12/22 14:27:53;;;;;;;4.30;4.00;;;11.70;96.30;;;;;;4976033;28;20448;-77
2022/12/22 14:30:21;;;;;;;6.93;3.87;;;11.70;96.70;;;;;;4975795;28;20904;-76
2022/12/22 14:32:52;;;;;;;4.90;4.47;;;11.70;96.80;;;;;;4975759;28;20466;-77
2022/12/22 14:35:25;;;;;;;4.10;3.80;;;11.60;97.00;;;;;;4976460;28;20496;-76
2022/12/22 14:37:54;;;;;;;4.37;3.70;;;11.60;97.80;;;;;;4975429;28;20434;-76
2022/12/22 14:40:32;;;;;;;4.57;4.17;;;11.60;97.60;;;;;;4975501;28;20477;-76
2022/12/22 14:43:01;;;;;;;4.90;4.50;;;11.60;97.70;;;;;;4975874;28;20449;-76
2022/12/22 14:45:30;;;;;;;5.10;4.60;;;11.60;97.80;;;;;;4975067;28;20509;-77
2022/12/22 14:47:58;;;;;;;5.10;4.50;;;11.60;98.00;;;;;;4975227;28;20437;-76
2022/12/22 14:50:27;;;;;;;4.83;4.47;;;11.60;98.20;;;;;;4975314;28;20564;-76
2022/12/22 14:52:57;;;;;;;5.10;4.60;;;11.70;98.30;;;;;;4975648;28;20461;-76
2022/12/22 14:55:28;;;;;;;5.40;4.90;;;11.70;98.40;;;;;;4975761;28;20496;-76
2022/12/22 14:57:58;;;;;;;6.03;4.67;;;11.70;98.50;;;;;;4975789;28;20515;-76
2022/12/22 15:00:33;;;;;;;8.00;6.93;;;11.80;98.60;;;;;;4974896;28;20515;-76
2022/12/22 15:03:04;;;;;;;9.10;8.20;;;11.80;98.60;;;;;;4975225;28;20440;-76
2022/12/22 15:05:34;;;;;;;7.07;6.47;;;11.80;98.60;;;;;;4974978;28;20485;-76
2022/12/22 15:08:02;;;;;;;7.33;6.63;;;11.80;98.60;;;;;;4975191;28;20463;-76
2022/12/22 15:10:36;;;;;;;6.50;5.90;;;11.80;98.70;;;;;;4975717;28;20482;-76
2022/12/22 15:13:07;;;;;;;5.80;5.30;;;11.80;98.70;;;;;;4974861;28;20524;-77
2022/12/22 15:15:34;;;;;;;7.23;5.80;;;11.80;98.70;;;;;;4975149;28;20478;-76
2022/12/22 15:18:03;;;;;;;6.93;5.33;;;11.80;98.60;;;;;;4975681;28;20468;-76
2022/12/22 15:20:30;;;;;;;9.37;5.83;;;11.80;98.50;;;;;;4975703;28;20500;-76
2022/12/22 15:22:57;;;;;;;7.07;5.17;;;11.80;98.50;;;;;;4975256;28;20442;-77
2022/12/22 15:25:25;;;;;;;6.30;5.00;;;11.80;98.70;;;;;;4975221;28;20876;-78
2022/12/22 15:27:52;;;;;;;9.20;5.83;;;11.70;99.00;;;;;;4975658;28;20823;-78
2022/12/22 15:30:21;;;;;;;8.13;5.43;;;11.70;99.40;;;;;;4975086;28;20441;-78
2022/12/22 15:32:48;;;;;;;9.63;5.70;;;11.70;99.70;;;;;;4975241;28;20962;-78
2022/12/22 15:35:18;;;;;;;6.77;6.07;;;11.70;99.90;;;;;;4974903;28;20489;-77
2022/12/22 15:37:45;;;;;;;6.70;5.90;;;11.70;99.90;;;;;;4976403;28;20460;-77
2022/12/22 15:40:17;;;;;;;8.97;7.43;;;11.60;99.90;;;;;;4975850;28;21047;-76
2022/12/22 15:42:43;;;;;;;6.60;6.00;;;11.60;99.90;;;;;;4979941;28;20461;-76
2022/12/22 15:45:11;;;;;;;6.60;5.90;;;11.60;99.90;;;;;;4981754;28;20468;-76
2022/12/22 15:47:38;;;;;;;10.47;4.53;;;11.60;99.90;;;;;;4989443;28;20457;-76
2022/12/22 15:50:07;;;;;;;5.07;4.57;;;11.60;99.90;;;;;;4983494;28;20452;-77
2022/12/22 15:52:35;;;;;;;4.70;3.73;;;11.60;99.90;;;;;;4979427;28;20464;-77
2022/12/22 15:55:02;;;;;;;7.23;3.60;;;11.50;99.90;;;;;;4979408;28;20491;-78
2022/12/22 15:57:29;;;;;;;4.00;3.70;;;11.50;99.90;;;;;;4979309;28;20449;-78
2022/12/22 15:59:56;;;;;;;9.27;5.17;;;11.50;99.90;;;;;;4978616;28;20491;-77
2022/12/22 16:02:22;;;;;;;5.03;4.10;;;11.50;99.90;;;;;;4980677;28;20488;-77
2022/12/22 16:04:49;;;;;;;4.10;3.40;;;11.50;99.90;;;;;;4978707;28;20484;-77
2022/12/22 16:07:16;;;;;;;3.80;3.00;;;11.50;99.90;;;;;;4990521;28;20476;-76
2022/12/22 16:09:47;;;;;;;8.80;6.30;;;11.50;99.90;;;;;;4997852;28;20456;-77
2022/12/22 16:12:17;;;;;;;11.97;8.37;;;11.50;99.90;;;;;;4998459;28;20476;-77
2022/12/22 16:14:54;;;;;;;6.80;5.00;;;11.50;99.90;;;;;;4998214;28;20505;-78
2022/12/22 16:17:25;;;;;;;11.60;7.47;;;11.50;99.90;;;;;;4998524;28;20443;-78
2022/12/22 16:19:52;;;;;;;7.63;5.73;;;11.50;99.90;;;;;;4998441;28;20475;-77
2022/12/22 16:22:23;;;;;;;6.70;3.97;;;11.50;99.90;;;;;;4997495;28;20464;-78
2022/12/22 16:24:51;;;;;;;8.47;5.37;;;11.50;99.90;;;;;;4997497;28;20472;-77
2022/12/22 16:27:19;;;;;;;4.83;4.10;;;11.50;99.90;;;;;;4997442;28;20463;-77
2022/12/22 16:29:51;;;;;;;7.00;4.60;;;11.50;99.90;;;;;;4996970;28;20812;-77
2022/12/22 16:32:24;;;;;;;7.60;4.37;;;11.50;99.90;;;;;;4997131;28;20471;-77
2022/12/22 16:34:50;;;;;;;4.77;3.27;;;11.40;99.90;;;;;;4997283;28;20478;-77
2022/12/22 16:37:17;;;;;;;9.70;4.43;;;11.40;99.90;;;;;;4997021;28;20455;-78